Time;durP1;ratioP1;P1;durP2;ratioP2;P2;SDS_P1;SDS_P2;PMS_P1;PMS_P2;Temp;Humidity;BMP_temperature;BMP_pressure;BME280_temperature;BME280_humidity;BME280_pressure;Samples;Min_cycle;Max_cycle;Signal;HPM_P1;HPM_P2
2023/01/27 00:00:19;;;;;;;4.00;2.92;;;;;;;1.57;84.88;100936.56;4954829;29;20581;-84
2023/01/27 00:02:45;;;;;;;13.65;4.20;;;;;;;1.63;84.97;100939.09;4954614;29;20106;-84
2023/01/27 00:05:11;;;;;;;3.65;3.03;;;;;;;1.63;84.79;100944.19;4954333;29;20086;-83
2023/01/27 00:07:37;;;;;;;4.50;3.50;;;;;;;1.64;84.68;100955.25;4954570;29;20023;-84
2023/01/27 00:10:03;;;;;;;8.80;5.43;;;;;;;1.60;85.12;100951.88;4954454;29;20046;-84
2023/01/27 00:15:13;;;;;;;5.25;4.70;;;;;;;1.60;85.35;100943.38;4967990;28;20093;-83
2023/01/27 00:17:38;;;;;;;5.85;4.53;;;;;;;1.64;85.10;100945.03;4954221;29;20035;-84
2023/01/27 00:20:04;;;;;;;6.57;4.25;;;;;;;1.56;85.46;100942.53;4954291;29;20031;-84
2023/01/27 00:25:14;;;;;;;8.73;2.33;;;;;;;1.42;85.35;100896.75;4954156;29;20131;-84
2023/01/27 00:27:40;;;;;;;6.93;3.50;;;;;;;1.56;85.59;100926.38;4953234;28;20106;-85
2023/01/27 00:30:06;;;;;;;4.95;3.15;;;;;;;1.62;85.55;100919.56;4954131;29;20031;-84
2023/01/27 00:35:15;;;;;;;5.38;3.65;;;;;;;1.56;85.54;100917.03;4967609;28;20050;-85
2023/01/27 00:37:44;;;;;;;3.88;3.03;;;;;;;1.64;85.25;100914.44;4953827;29;20035;-84
2023/01/27 00:40:10;;;;;;;2.13;1.85;;;;;;;1.61;85.15;100920.41;4953916;29;20031;-83
2023/01/27 00:42:36;;;;;;;3.58;2.22;;;;;;;1.49;84.28;100882.25;4953478;29;20515;-84
2023/01/27 00:47:48;;;;;;;2.55;2.28;;;;;;;1.55;85.33;100914.50;4953810;29;20038;-83
2023/01/27 00:50:15;;;;;;;3.75;3.08;;;;;;;1.49;86.07;100894.16;4953849;29;20055;-83
2023/01/27 00:52:41;;;;;;;4.05;3.22;;;;;;;1.55;85.64;100901.75;4953995;29;20117;-84
2023/01/27 00:55:07;;;;;;;1.45;1.35;;;;;;;1.47;85.64;100878.00;4953471;29;20035;-84
2023/01/27 00:57:33;;;;;;;4.47;2.75;;;;;;;1.56;85.26;100891.53;4953350;29;20034;-84
2023/01/27 00:59:58;;;;;;;3.78;2.10;;;;;;;1.59;85.48;100895.78;4953327;29;20031;-83
2023/01/27 01:02:24;;;;;;;4.00;2.05;;;;;;;1.70;85.28;100894.84;4953815;29;20082;-83
2023/01/27 01:04:49;;;;;;;2.75;1.65;;;;;;;1.64;84.60;100888.94;4953068;29;20077;-83
2023/01/27 01:07:15;;;;;;;2.38;2.10;;;;;;;1.54;84.97;100872.00;4953160;29;20506;-83
2023/01/27 01:09:40;;;;;;;2.67;2.03;;;;;;;1.58;85.28;100889.84;4953669;29;20066;-83
2023/01/27 01:12:06;;;;;;;1.70;1.60;;;;;;;1.56;85.24;100880.50;4953096;29;20027;-83
2023/01/27 01:14:31;;;;;;;4.07;2.50;;;;;;;1.56;85.21;100885.59;4953296;29;20056;-84
2023/01/27 01:16:57;;;;;;;7.10;2.30;;;;;;;1.67;84.82;100886.34;4952930;29;20035;-84
2023/01/27 01:19:23;;;;;;;2.33;1.35;;;;;;;1.61;85.11;100886.41;4953264;28;20487;-84
2023/01/27 01:21:48;;;;;;;1.75;1.65;;;;;;;1.62;85.32;100895.75;4969402;28;20031;-84
2023/01/27 01:24:14;;;;;;;5.55;1.25;;;;;;;1.52;85.38;100864.38;4953132;29;20031;-84
2023/01/27 01:26:39;;;;;;;2.25;1.88;;;;;;;1.54;85.26;100866.91;4952825;29;20023;-84
2023/01/27 01:29:05;;;;;;;2.80;1.70;;;;;;;1.63;84.66;100877.88;4952973;29;20034;-83
2023/01/27 01:31:30;;;;;;;2.35;1.48;;;;;;;1.60;85.25;100883.03;4953065;29;20376;-84
2023/01/27 01:33:56;;;;;;;2.85;1.60;;;;;;;1.53;85.30;100878.81;4952648;29;20086;-83
2023/01/27 01:36:21;;;;;;;2.22;2.03;;;;;;;1.51;84.92;100872.06;4952805;29;20031;-84
2023/01/27 01:38:47;;;;;;;3.42;2.20;;;;;;;1.64;85.06;100879.56;4952825;28;20035;-84
2023/01/27 01:41:14;;;;;;;4.72;1.50;;;;;;;1.68;85.60;100885.53;4968283;28;20034;-83
2023/01/27 01:43:40;;;;;;;3.63;1.98;;;;;;;1.68;85.19;100875.31;4952661;29;20445;-83
2023/01/27 01:46:08;;;;;;;2.90;1.35;;;;;;;1.63;85.42;100871.94;4952773;29;20078;-83
2023/01/27 01:48:45;;;;;;;2.05;1.30;;;;;;;1.69;84.94;100872.75;4952451;29;20033;-83
2023/01/27 01:51:33;;;;;;;2.22;1.67;;;;;;;1.73;85.06;100871.00;4952505;29;20032;-83
2023/01/27 01:54:15;;;;;;;2.63;1.77;;;;;;;1.73;84.27;100866.75;4952442;29;20023;-83
2023/01/27 01:56:40;;;;;;;2.60;2.38;;;;;;;1.67;85.26;100876.16;4967989;28;20047;-83
2023/01/27 01:59:11;;;;;;;2.25;1.65;;;;;;;1.63;85.12;100866.84;4953784;29;20031;-83
2023/01/27 02:01:37;;;;;;;1.10;1.02;;;;;;;1.56;85.02;100850.75;4952389;29;20058;-83
2023/01/27 02:04:04;;;;;;;1.15;1.08;;;;;;;1.53;85.31;100850.78;4952313;29;20170;-83
2023/01/27 02:06:33;;;;;;;3.38;1.55;;;;;;;1.60;85.32;100851.56;4936239;29;20061;-83
2023/01/27 02:08:59;;;;;;;0.85;0.85;;;;;;;1.60;84.85;100841.38;4952173;29;20106;-84
2023/01/27 02:11:24;;;;;;;2.17;1.55;;;;;;;1.66;84.73;100854.91;4936266;29;20039;-83
2023/01/27 02:13:49;;;;;;;1.42;1.33;;;;;;;1.70;85.00;100859.13;4952205;29;20427;-83
2023/01/27 02:16:15;;;;;;;4.22;2.47;;;;;;;1.61;84.58;100843.06;4952076;29;20039;-83
2023/01/27 02:18:40;;;;;;;2.03;1.50;;;;;;;1.62;84.36;100840.50;4952044;28;20422;-83
2023/01/27 02:21:06;;;;;;;2.03;1.65;;;;;;;1.65;84.95;100860.00;4951865;29;20055;-82
2023/01/27 02:23:38;;;;;;;3.13;2.38;;;;;;;1.66;85.38;100856.59;4951632;29;20031;-83
2023/01/27 02:26:20;;;;;;;5.18;2.85;;;;;;;1.49;85.01;100832.97;4953240;29;20038;-83
2023/01/27 02:28:54;;;;;;;1.35;1.25;;;;;;;1.56;84.91;100849.88;4968020;28;20499;-83
2023/01/27 02:31:20;;;;;;;2.75;1.90;;;;;;;1.41;85.40;100826.22;4952260;29;20084;-83
2023/01/27 02:33:45;;;;;;;1.33;1.20;;;;;;;1.40;85.44;100826.25;4951891;29;20611;-83
2023/01/27 02:36:12;;;;;;;1.95;1.52;;;;;;;1.54;85.47;100847.34;4951900;29;20039;-83
2023/01/27 02:38:48;;;;;;;1.25;1.13;;;;;;;1.36;85.38;100822.00;4951320;29;20110;-83
2023/01/27 02:41:21;;;;;;;2.38;1.48;;;;;;;1.50;86.06;100847.41;4951594;29;20494;-83
2023/01/27 02:43:47;;;;;;;1.80;1.63;;;;;;;1.28;86.12;100814.44;4951724;28;20039;-83
2023/01/27 02:46:13;;;;;;;1.60;1.25;;;;;;;1.48;86.11;100841.50;4935760;29;20059;-83
2023/01/27 02:48:38;;;;;;;4.63;1.73;;;;;;;1.55;85.70;100838.84;4935631;29;20506;-83
2023/01/27 02:51:04;;;;;;;2.42;2.22;;;;;;;1.55;85.52;100832.91;4951445;28;20434;-83
2023/01/27 02:53:29;;;;;;;1.58;1.05;;;;;;;1.47;85.48;100829.56;4951161;29;20082;-83
2023/01/27 02:55:55;;;;;;;3.78;2.38;;;;;;;1.52;85.80;100838.03;4951458;29;20502;-83
2023/01/27 02:58:20;;;;;;;2.13;1.92;;;;;;;1.52;85.83;100832.94;4935631;29;20038;-83
2023/01/27 03:00:46;;;;;;;2.40;2.20;;;;;;;1.45;86.00;100816.84;4951532;29;20035;-83
2023/01/27 03:03:11;;;;;;;3.08;2.13;;;;;;;1.42;85.83;100812.63;4951435;29;20031;-83
2023/01/27 03:05:37;;;;;;;3.92;1.77;;;;;;;1.48;86.19;100816.00;4950922;29;20126;-84
2023/01/27 03:08:02;;;;;;;1.70;1.25;;;;;;;1.58;85.69;100815.06;4967130;28;20027;-83
2023/01/27 03:10:28;;;;;;;3.35;1.80;;;;;;;1.54;85.73;100801.47;4967487;28;20031;-83
2023/01/27 03:12:53;;;;;;;4.00;2.75;;;;;;;1.61;85.26;100805.66;4951420;29;20067;-83
2023/01/27 03:18:14;;;;;;;3.22;2.20;;;;;;;1.49;85.70;100804.94;4951226;29;20200;-83
2023/01/27 03:20:41;;;;;;;4.00;2.65;;;;;;;1.47;85.88;100798.97;4951516;29;20031;-83
2023/01/27 03:23:06;;;;;;;2.45;1.35;;;;;;;1.49;85.76;100787.09;4950751;29;20032;-83
2023/01/27 03:25:32;;;;;;;1.88;1.30;;;;;;;1.49;86.03;100781.97;4951385;29;20038;-83
2023/01/27 03:27:58;;;;;;;2.05;1.55;;;;;;;1.41;86.02;100780.34;4951344;29;20075;-83
2023/01/27 03:30:24;;;;;;;0.35;0.35;;;;;;;1.42;86.12;100779.47;4951378;29;20411;-83
2023/01/27 03:32:49;;;;;;;0.65;0.63;;;;;;;1.31;86.38;100758.34;4951345;29;20495;-83
2023/01/27 03:35:15;;;;;;;2.58;1.67;;;;;;;1.46;85.83;100776.91;4967117;28;20035;-83
2023/01/27 03:48:37;;;;;;;1.10;1.00;;;;;;;1.56;85.53;100773.41;4950997;29;20094;-83
2023/01/27 03:51:04;;;;;;;0.80;0.75;;;;;;;1.51;85.79;100765.81;4950888;29;20027;-83
2023/01/27 03:53:30;;;;;;;1.50;1.40;;;;;;;1.43;86.25;100763.31;4950953;29;20023;-83
2023/01/27 03:55:55;;;;;;;1.70;1.60;;;;;;;1.51;86.05;100780.25;4951053;29;20051;-83
2023/01/27 03:58:23;;;;;;;1.95;1.02;;;;;;;1.57;86.13;100786.13;4951084;28;20035;-86
2023/01/27 04:00:51;;;;;;;0.50;0.45;;;;;;;1.68;85.92;100783.50;4952399;29;20469;-86
2023/01/27 04:08:49;;;;;;;1.13;0.80;;;;;;;1.93;84.39;100779.81;4954696;29;20442;-86
2023/01/27 04:14:02;;;;;;;1.92;0.77;;;;;;;2.20;83.26;100793.13;4954327;29;20046;-85
2023/01/27 04:16:29;;;;;;;2.50;1.55;;;;;;;2.24;82.66;100795.63;4954188;29;20031;-86
2023/01/27 04:18:55;;;;;;;1.67;1.55;;;;;;;2.23;82.79;100783.72;4938222;29;20054;-86
2023/01/27 04:21:20;;;;;;;1.00;0.80;;;;;;;2.15;82.09;100769.34;4954320;29;20059;-87
2023/01/27 04:23:46;;;;;;;1.35;1.25;;;;;;;2.39;81.21;100784.38;4970162;28;20031;-86
2023/01/27 04:26:11;;;;;;;3.92;2.22;;;;;;;2.39;81.43;100799.69;4953944;29;20034;-86
2023/01/27 04:28:37;;;;;;;1.83;1.63;;;;;;;2.38;80.93;100790.34;4953942;29;20418;-83
2023/01/27 04:31:02;;;;;;;1.98;1.27;;;;;;;2.29;81.21;100793.03;4954200;29;20030;-82
2023/01/27 04:33:28;;;;;;;2.15;0.82;;;;;;;2.06;82.13;100769.47;4954047;29;20546;-82
2023/01/27 04:35:54;;;;;;;1.88;1.17;;;;;;;2.08;82.02;100788.16;4953970;29;20027;-82
2023/01/27 04:38:21;;;;;;;1.00;0.82;;;;;;;1.96;82.50;100778.94;4954274;29;20039;-82
2023/01/27 04:40:46;;;;;;;2.15;1.95;;;;;;;1.98;83.02;100783.19;4953960;29;20662;-82
2023/01/27 04:43:12;;;;;;;3.60;1.95;;;;;;;1.96;83.20;100784.88;4937904;29;20032;-82
2023/01/27 04:45:37;;;;;;;3.10;1.55;;;;;;;1.93;83.40;100790.03;4953817;29;20023;-83
2023/01/27 04:48:03;;;;;;;7.63;5.70;;;;;;;1.82;83.18;100789.28;4953452;29;20090;-83
2023/01/27 04:50:28;;;;;;;13.90;6.82;;;;;;;1.85;83.86;100784.16;4953858;29;20034;-82
2023/01/27 04:52:54;;;;;;;6.25;5.60;;;;;;;1.61;84.12;100749.56;4953633;29;20042;-82
2023/01/27 04:55:19;;;;;;;14.52;11.20;;;;;;;1.69;84.52;100786.03;4953827;29;20035;-82
2023/01/27 04:57:45;;;;;;;5.07;3.50;;;;;;;1.64;84.71;100769.06;4937615;29;20031;-83
2023/01/27 05:00:11;;;;;;;2.22;1.15;;;;;;;1.60;85.06;100770.81;4953468;28;20074;-82
2023/01/27 05:02:37;;;;;;;1.42;1.33;;;;;;;1.57;84.59;100754.69;4953297;29;20129;-82
2023/01/27 05:05:03;;;;;;;0.95;0.65;;;;;;;1.62;84.34;100773.34;4952912;29;20048;-82
2023/01/27 05:07:30;;;;;;;1.52;1.38;;;;;;;1.35;84.80;100734.50;4969382;28;20122;-82
2023/01/27 05:09:55;;;;;;;0.43;0.43;;;;;;;1.63;85.29;100780.13;4937380;29;20118;-82
2023/01/27 05:12:20;;;;;;;0.75;0.75;;;;;;;1.55;85.18;100769.16;4953386;29;20082;-83
2023/01/27 05:14:46;;;;;;;2.80;1.30;;;;;;;1.63;84.83;100780.97;4946546;28;20715;-89
2023/01/27 05:17:11;;;;;;;3.33;1.70;;;;;;;1.62;84.66;100789.50;4937444;29;20031;-89
2023/01/27 05:19:37;;;;;;;1.55;1.02;;;;;;;1.70;85.15;100804.72;4952900;29;20035;-93
2023/01/27 05:22:03;;;;;;;1.58;1.48;;;;;;;1.60;84.85;100792.94;4953370;29;20042;-90
2023/01/27 05:24:28;;;;;;;1.30;1.20;;;;;;;1.68;85.16;100793.69;4953914;29;20067;-80
2023/01/27 05:26:54;;;;;;;1.35;1.23;;;;;;;1.66;85.12;100803.03;4952712;29;20035;-88
2023/01/27 05:29:19;;;;;;;2.28;1.20;;;;;;;1.55;84.65;100797.22;4953314;29;20027;-84
2023/01/27 05:31:45;;;;;;;2.22;1.50;;;;;;;1.70;84.99;100827.69;4952329;29;20035;-85
2023/01/27 05:34:10;;;;;;;2.95;2.42;;;;;;;1.61;84.44;100809.91;4969414;28;20038;-96
2023/01/27 05:36:35;;;;;;;3.45;2.15;;;;;;;1.58;85.02;100804.84;4947600;28;20036;-84
2023/01/27 05:39:01;;;;;;;2.38;1.52;;;;;;;1.67;85.03;100836.22;4949731;29;20483;-88
2023/01/27 05:41:30;;;;;;;3.72;3.03;;;;;;;1.72;85.09;100839.56;4952896;29;20031;-88
2023/01/27 05:43:55;;;;;;;2.60;2.40;;;;;;;1.69;84.78;100838.75;4933607;29;20030;-84
2023/01/27 05:46:25;;;;;;;5.78;4.07;;;;;;;1.73;84.93;100837.84;4933177;29;20028;-83
2023/01/27 05:48:53;;;;;;;6.05;4.43;;;;;;;1.70;84.75;100838.72;4933976;29;20054;-83
2023/01/27 05:51:19;;;;;;;13.70;4.80;;;;;;;1.65;85.17;100824.31;4932636;29;20392;-82
2023/01/27 05:53:45;;;;;;;4.35;3.10;;;;;;;1.50;84.99;100791.31;4933339;29;20035;-88
2023/01/27 05:56:12;;;;;;;7.40;2.80;;;;;;;1.79;84.76;100850.56;4932978;29;20392;-89
2023/01/27 05:58:37;;;;;;;12.95;4.30;;;;;;;1.73;84.78;100842.94;4932923;28;20031;-85
2023/01/27 06:01:07;;;;;;;4.70;3.53;;;;;;;1.77;85.08;100843.75;4951106;28;20054;-93
2023/01/27 06:03:32;;;;;;;4.55;3.47;;;;;;;1.81;84.68;100840.34;4963350;28;20046;-88
2023/01/27 06:05:58;;;;;;;4.32;3.80;;;;;;;1.70;85.69;100846.38;4950711;29;20055;-84
2023/01/27 06:08:24;;;;;;;7.03;3.50;;;;;;;1.80;85.18;100843.75;4968007;28;20027;-85
2023/01/27 06:10:50;;;;;;;5.95;4.18;;;;;;;1.71;85.55;100840.41;4967876;28;20526;-92
2023/01/27 06:13:16;;;;;;;4.47;2.78;;;;;;;1.86;86.14;100833.47;4936456;29;20054;-90
2023/01/27 06:15:45;;;;;;;3.75;1.98;;;;;;;1.90;85.44;100835.97;4942063;29;20035;-93
2023/01/27 06:18:11;;;;;;;2.58;2.08;;;;;;;1.89;84.79;100846.22;4937917;29;20050;-84
2023/01/27 06:20:36;;;;;;;4.35;3.35;;;;;;;1.86;84.25;100834.31;4949637;29;20039;-85
2023/01/27 06:23:02;;;;;;;4.82;3.67;;;;;;;1.84;84.43;100825.81;4948643;29;20036;-82
2023/01/27 06:25:28;;;;;;;4.55;2.67;;;;;;;1.90;85.03;100830.88;4947918;28;20042;-85
2023/01/27 06:27:54;;;;;;;10.00;3.80;;;;;;;1.89;84.34;100829.19;4947995;29;20031;-82
2023/01/27 06:30:20;;;;;;;6.75;3.70;;;;;;;1.94;84.06;100835.09;4948395;29;20078;-87
2023/01/27 06:32:45;;;;;;;2.15;1.45;;;;;;;1.93;84.76;100810.44;4932560;29;20024;-89
2023/01/27 06:35:10;;;;;;;4.32;2.85;;;;;;;2.15;84.26;100835.72;4948894;29;20400;-85
2023/01/27 06:37:36;;;;;;;8.93;3.88;;;;;;;2.11;83.87;100823.84;4948572;28;20035;-85
2023/01/27 06:40:03;;;;;;;4.82;3.38;;;;;;;2.21;84.33;100825.44;4932667;29;20032;-87
2023/01/27 06:42:29;;;;;;;2.15;1.80;;;;;;;2.06;83.58;100815.41;4932551;29;20482;-82
2023/01/27 06:44:54;;;;;;;2.58;2.03;;;;;;;2.00;84.13;100822.28;4933029;29;20424;-88
2023/01/27 06:47:20;;;;;;;2.83;2.60;;;;;;;1.96;83.25;100815.50;4948345;29;20067;-84
2023/01/27 06:49:45;;;;;;;1.85;1.73;;;;;;;1.86;84.10;100819.00;4932276;29;20527;-88
2023/01/27 06:52:11;;;;;;;3.88;1.70;;;;;;;1.85;84.07;100837.72;4947765;29;20336;-86
2023/01/27 06:54:36;;;;;;;3.40;3.10;;;;;;;1.87;83.75;100846.22;4934886;29;20043;-93
2023/01/27 06:57:02;;;;;;;7.80;3.42;;;;;;;1.80;84.52;100824.19;4953359;28;20495;-90
2023/01/27 06:59:27;;;;;;;6.47;4.13;;;;;;;1.92;84.34;100844.47;4935317;29;20034;-94
2023/01/27 07:01:53;;;;;;;25.63;15.45;;;;;;;1.91;83.84;100836.84;4928746;28;20048;-95
2023/01/27 07:04:21;;;;;;;7.85;5.55;;;;;;;1.84;84.22;100830.94;4949928;29;20059;-93
2023/01/27 07:06:47;;;;;;;14.63;6.68;;;;;;;1.87;84.51;100824.94;4967505;28;20031;-90
2023/01/27 07:09:12;;;;;;;9.55;5.40;;;;;;;1.84;84.96;100814.78;4950145;29;20039;-88
2023/01/27 07:11:38;;;;;;;15.85;6.85;;;;;;;1.91;84.74;100831.72;4932370;29;20539;-88
2023/01/27 07:14:03;;;;;;;4.25;3.85;;;;;;;1.95;83.97;100849.53;4954002;28;20043;-94
2023/01/27 07:16:29;;;;;;;9.13;5.78;;;;;;;1.99;83.95;100846.09;4948379;29;20086;-91
2023/01/27 07:18:54;;;;;;;6.45;5.80;;;;;;;1.94;84.71;100839.34;4949440;29;20060;-90
2023/01/27 07:21:20;;;;;;;8.40;5.30;;;;;;;1.94;84.28;100847.84;4931765;29;20032;-91
2023/01/27 07:23:45;;;;;;;12.00;5.40;;;;;;;1.97;84.34;100841.88;4932030;29;20419;-80
2023/01/27 07:26:11;;;;;;;8.95;4.65;;;;;;;1.90;84.56;100819.84;4947391;28;20040;-84
2023/01/27 07:28:36;;;;;;;8.02;5.03;;;;;;;1.92;84.64;100836.81;4947239;29;20043;-80
2023/01/27 07:31:02;;;;;;;8.82;5.15;;;;;;;1.91;84.17;100826.63;4932622;29;20462;-86
2023/01/27 07:33:28;;;;;;;6.65;4.65;;;;;;;1.99;83.61;100835.91;4931631;29;20043;-85
2023/01/27 07:35:54;;;;;;;8.50;5.90;;;;;;;1.88;84.56;100831.75;4931226;29;20020;-83
2023/01/27 07:38:20;;;;;;;8.85;6.53;;;;;;;1.97;84.52;100850.38;4946752;28;20032;-93
2023/01/27 07:40:45;;;;;;;10.73;3.88;;;;;;;1.93;84.24;100855.50;4931411;29;20170;-88
2023/01/27 07:43:11;;;;;;;7.28;3.80;;;;;;;1.98;83.87;100849.50;4956934;29;20027;-93
2023/01/27 07:45:36;;;;;;;6.95;4.90;;;;;;;1.99;83.79;100837.59;4970720;28;20027;-86
2023/01/27 07:48:03;;;;;;;11.25;4.97;;;;;;;1.90;83.49;100825.78;4954405;29;20079;-91
2023/01/27 07:50:28;;;;;;;8.23;4.47;;;;;;;2.04;83.65;100857.94;4939369;29;20027;-90
2023/01/27 07:52:54;;;;;;;11.57;6.32;;;;;;;2.00;84.20;100852.06;4931145;29;20864;-93
2023/01/27 07:55:19;;;;;;;6.60;3.20;;;;;;;2.03;84.02;100856.25;4935194;29;20028;-84
2023/01/27 07:57:45;;;;;;;5.38;4.28;;;;;;;2.09;84.07;100858.75;4966281;28;20624;-83
2023/01/27 08:00:14;;;;;;;7.18;5.80;;;;;;;1.99;83.95;100846.09;4967845;28;20027;-86
2023/01/27 08:02:40;;;;;;;5.55;4.85;;;;;;;2.08;84.84;100860.47;4949030;28;20066;-92
2023/01/27 08:05:06;;;;;;;10.45;8.02;;;;;;;2.05;84.23;100854.53;4937645;29;20857;-87
2023/01/27 08:07:31;;;;;;;10.55;6.45;;;;;;;2.15;83.77;100871.44;4955576;29;20041;-85
2023/01/27 08:09:57;;;;;;;7.95;4.82;;;;;;;2.12;83.49;100868.94;4939040;29;20032;-88
2023/01/27 08:12:22;;;;;;;13.93;10.00;;;;;;;2.12;83.93;100876.59;4953715;29;20039;-91
2023/01/27 08:14:48;;;;;;;8.93;5.70;;;;;;;2.03;83.91;100861.38;4951421;29;20038;-88
2023/01/27 08:17:13;;;;;;;5.75;4.57;;;;;;;2.05;84.29;100872.41;4968349;28;20490;-82
2023/01/27 08:19:39;;;;;;;6.00;4.05;;;;;;;1.99;84.38;100869.06;4943435;29;20046;-88
2023/01/27 08:22:04;;;;;;;6.43;3.90;;;;;;;2.00;84.04;100858.00;4952362;28;20031;-90
2023/01/27 08:24:30;;;;;;;11.77;7.63;;;;;;;2.05;84.19;100864.75;4937839;29;20027;-83
2023/01/27 08:26:55;;;;;;;7.90;5.93;;;;;;;2.16;83.98;100875.69;4954157;29;20034;-85
2023/01/27 08:29:21;;;;;;;6.00;4.57;;;;;;;2.17;83.83;100869.75;4953647;29;20027;-79
2023/01/27 08:31:46;;;;;;;6.03;4.15;;;;;;;2.14;83.51;100864.66;4952786;28;20028;-89
2023/01/27 08:34:12;;;;;;;8.70;5.88;;;;;;;2.18;82.95;100861.22;4938057;29;20091;-87
2023/01/27 08:36:40;;;;;;;6.35;4.85;;;;;;;2.18;83.55;100868.88;4952546;29;20110;-82
2023/01/27 08:39:06;;;;;;;8.52;6.13;;;;;;;2.17;83.76;100870.59;4952860;28;20503;-83
2023/01/27 08:41:31;;;;;;;6.85;5.43;;;;;;;1.91;83.67;100832.56;4960273;28;20042;-83
2023/01/27 08:43:57;;;;;;;7.60;4.22;;;;;;;2.11;84.01;100854.47;4935522;29;20114;-86
2023/01/27 08:46:22;;;;;;;6.55;5.00;;;;;;;2.01;84.13;100844.38;4955379;28;20031;-84
2023/01/27 08:48:50;;;;;;;12.88;6.80;;;;;;;2.10;83.71;100852.81;4936615;28;20028;-83
2023/01/27 08:51:16;;;;;;;9.90;7.18;;;;;;;2.15;83.40;100863.78;4949801;28;20036;-88
2023/01/27 08:53:41;;;;;;;10.75;6.75;;;;;;;2.16;83.86;100858.66;4930192;29;20392;-87
2023/01/27 08:56:10;;;;;;;9.10;6.25;;;;;;;2.20;83.93;100864.59;4952199;29;20038;-88
2023/01/27 08:58:35;;;;;;;9.93;8.50;;;;;;;2.28;83.97;100867.91;4946046;29;20031;-82
2023/01/27 09:01:02;;;;;;;12.18;8.80;;;;;;;2.36;83.67;100875.47;4943211;29;20050;-83
2023/01/27 09:03:29;;;;;;;14.13;6.75;;;;;;;2.35;83.25;100876.34;4952035;28;20418;-82
2023/01/27 09:05:54;;;;;;;10.57;6.22;;;;;;;2.52;84.16;100882.94;4938379;28;20066;-85
2023/01/27 09:08:20;;;;;;;10.93;7.05;;;;;;;2.53;83.03;100879.53;4945374;29;20027;-86
2023/01/27 09:10:45;;;;;;;7.57;5.40;;;;;;;2.52;82.39;100874.44;4933061;29;20036;-84
2023/01/27 09:13:10;;;;;;;7.53;5.78;;;;;;;2.44;82.11;100871.97;4944757;29;20023;-83
2023/01/27 09:15:36;;;;;;;13.15;8.55;;;;;;;2.48;82.40;100865.97;4936564;29;20043;-85
2023/01/27 09:18:02;;;;;;;10.20;7.50;;;;;;;2.62;82.49;100878.56;4949901;29;20066;-92
2023/01/27 09:20:28;;;;;;;17.45;10.82;;;;;;;2.51;83.08;100860.81;4948367;28;20031;-80
2023/01/27 09:22:54;;;;;;;32.72;10.48;;;;;;;2.62;82.78;100881.13;4942795;29;20456;-83
2023/01/27 09:25:19;;;;;;;18.90;10.05;;;;;;;2.58;83.23;100861.59;4935785;29;20486;-93
2023/01/27 09:27:45;;;;;;;10.05;7.15;;;;;;;2.55;83.16;100877.78;4949282;29;20031;-91
2023/01/27 09:30:11;;;;;;;10.13;6.07;;;;;;;2.49;82.58;100869.38;4937032;28;20118;-90
2023/01/27 09:32:37;;;;;;;6.15;5.03;;;;;;;2.51;82.60;100870.19;4939969;29;20039;-92
2023/01/27 09:35:03;;;;;;;13.75;6.45;;;;;;;2.49;82.74;100862.56;4968974;28;20035;-89
2023/01/27 09:37:28;;;;;;;3.67;3.00;;;;;;;2.37;82.87;100844.84;4954066;28;20035;-81
2023/01/27 09:39:55;;;;;;;4.55;2.95;;;;;;;2.28;82.63;100845.78;4964817;28;20486;-81
2023/01/27 09:42:49;;;;;;;7.28;3.58;;;;;;;3.15;93.32;100864.25;4939019;29;20110;-90
2023/01/27 09:45:17;;;;;;;4.30;3.42;;;;;;;3.95;93.99;100851.00;4952070;29;20065;-90
2023/01/27 09:48:05;;;;;;;5.35;4.28;;;;;;;4.06;85.72;100856.75;4969047;28;20180;-90
2023/01/27 09:50:44;;;;;;;8.77;3.78;;;;;;;3.69;79.75;100861.69;4933840;29;20024;-81
2023/01/27 09:53:51;;;;;;;5.03;3.45;;;;;;;3.32;79.69;100853.75;4948250;28;20027;-85
2023/01/27 09:56:47;;;;;;;5.97;3.97;;;;;;;3.13;79.80;100851.47;4967200;28;20054;-86
2023/01/27 09:59:13;;;;;;;6.95;4.13;;;;;;;3.03;81.21;100849.06;4953661;28;20031;-85
2023/01/27 10:02:17;;;;;;;3.40;3.10;;;;;;;2.88;81.24;100850.13;4935770;28;20031;-85
2023/01/27 10:04:59;;;;;;;5.63;4.15;;;;;;;2.79;82.06;100845.16;4920213;29;20044;-86
2023/01/27 10:07:36;;;;;;;8.73;5.43;;;;;;;2.76;82.39;100833.28;4931896;28;20043;-85
2023/01/27 10:10:29;;;;;;;5.45;4.22;;;;;;;2.82;81.99;100835.72;4948038;28;20039;-89
2023/01/27 10:13:12;;;;;;;5.32;4.00;;;;;;;2.75;82.24;100838.38;4943889;29;20031;-93
2023/01/27 10:16:00;;;;;;;2.28;2.08;;;;;;;2.91;84.31;100836.47;4969159;28;20055;-90
2023/01/27 10:18:42;;;;;;;8.45;4.20;;;;;;;2.80;82.62;100826.41;4947769;28;20423;-86
2023/01/27 10:21:20;;;;;;;6.55;4.63;;;;;;;2.70;82.95;100822.28;4945569;28;20031;-86
2023/01/27 10:23:51;;;;;;;12.68;4.63;;;;;;;2.70;82.78;100810.34;4931230;29;20040;-85
2023/01/27 10:26:27;;;;;;;4.70;2.67;;;;;;;2.55;82.62;100790.13;4957247;28;20027;-86
2023/01/27 10:29:17;;;;;;;7.30;4.72;;;;;;;2.73;82.94;100817.13;4962766;28;20290;-81
2023/01/27 10:32:08;;;;;;;3.70;2.00;;;;;;;2.69;82.28;100812.94;4952904;28;20035;-88
2023/01/27 10:34:35;;;;;;;4.32;3.38;;;;;;;2.62;82.80;100811.31;4942356;29;20478;-94
2023/01/27 10:37:35;;;;;;;9.43;2.65;;;;;;;2.58;83.35;100808.81;4940854;29;20031;-87
2023/01/27 10:40:20;;;;;;;3.97;2.97;;;;;;;2.54;83.44;100807.16;4931520;29;20652;-86
2023/01/27 10:43:05;;;;;;;3.30;2.80;;;;;;;2.44;83.48;100789.41;4940842;29;20032;-89
2023/01/27 10:45:38;;;;;;;8.10;4.85;;;;;;;2.58;83.28;100806.25;4964935;28;20353;-87
2023/01/27 10:48:07;;;;;;;3.60;2.97;;;;;;;2.51;83.84;100812.31;4966082;28;20090;-88
2023/01/27 10:50:41;;;;;;;7.18;3.85;;;;;;;2.50;83.79;100804.66;4965237;28;20034;-84
2023/01/27 10:53:18;;;;;;;5.93;4.15;;;;;;;2.57;83.79;100804.56;4966485;28;20037;-93
2023/01/27 10:56:08;;;;;;;3.20;2.45;;;;;;;2.48;83.74;100789.38;4970269;28;20216;-84
2023/01/27 10:58:50;;;;;;;9.45;5.00;;;;;;;2.55;83.79;100777.34;4928140;29;20038;-81
2023/01/27 11:01:18;;;;;;;12.48;6.80;;;;;;;2.50;83.77;100782.53;4936616;29;20035;-87
2023/01/27 11:03:49;;;;;;;8.68;4.57;;;;;;;2.35;83.71;100756.34;4952578;28;20035;-86
2023/01/27 11:06:19;;;;;;;4.07;3.67;;;;;;;2.53;83.57;100785.03;4965727;28;20055;-80
2023/01/27 11:08:46;;;;;;;4.05;2.53;;;;;;;2.51;84.07;100781.66;4940716;29;20050;-89
2023/01/27 11:14:14;;;;;;;3.17;2.17;;;;;;;2.66;83.26;100797.66;4950461;29;20053;-86
2023/01/27 11:16:41;;;;;;;6.78;4.35;;;;;;;2.45;83.30;100753.63;4924828;29;20054;-83
2023/01/27 11:19:18;;;;;;;10.20;4.72;;;;;;;2.63;83.84;100782.34;4905482;29;20023;-86
2023/01/27 11:21:43;;;;;;;4.72;3.17;;;;;;;2.52;84.71;100772.28;4928018;29;20575;-85
2023/01/27 11:24:43;;;;;;;6.13;3.80;;;;;;;2.70;84.19;100786.53;4928508;29;20036;-93
2023/01/27 11:27:50;;;;;;;9.40;5.75;;;;;;;2.63;84.47;100782.34;4913935;29;20492;-88
2023/01/27 11:30:20;;;;;;;5.97;3.80;;;;;;;2.64;84.71;100773.81;4934219;29;20055;-84
2023/01/27 11:33:02;;;;;;;7.90;3.97;;;;;;;2.65;83.95;100768.69;4914661;29;20090;-85
2023/01/27 11:35:28;;;;;;;34.00;7.10;;;;;;;2.62;84.12;100765.34;4928616;29;20055;-86
2023/01/27 11:37:54;;;;;;;11.45;4.78;;;;;;;2.57;83.59;100761.16;4926348;29;20162;-89
2023/01/27 11:40:28;;;;;;;5.03;4.13;;;;;;;2.49;83.91;100769.78;4931135;29;20063;-92
2023/01/27 11:42:56;;;;;;;4.47;3.17;;;;;;;2.60;84.40;100783.25;4935244;29;20031;-94
2023/01/27 11:45:22;;;;;;;7.55;3.85;;;;;;;2.42;84.74;100747.75;4928894;28;20035;-90
2023/01/27 11:47:50;;;;;;;6.63;3.95;;;;;;;2.76;84.05;100789.00;4911898;29;20044;-91
2023/01/27 11:50:16;;;;;;;7.55;5.63;;;;;;;2.79;84.09;100786.38;4928428;29;20043;-83
2023/01/27 11:52:47;;;;;;;9.93;5.68;;;;;;;2.81;83.42;100782.09;4912891;29;20028;-88
2023/01/27 11:55:12;;;;;;;8.80;4.88;;;;;;;2.84;83.17;100787.16;4912044;29;20039;-85
2023/01/27 11:57:42;;;;;;;6.72;5.38;;;;;;;2.76;83.82;100774.50;4927086;29;20032;-84
2023/01/27 12:00:23;;;;;;;25.83;10.55;;;;;;;2.79;83.68;100781.28;4911773;29;20071;-91
2023/01/27 12:02:54;;;;;;;11.45;8.40;;;;;;;2.81;83.77;100772.72;4943898;29;20032;-86
2023/01/27 12:05:37;;;;;;;20.15;10.23;;;;;;;2.84;83.29;100777.78;4930566;29;20051;-87
2023/01/27 12:08:03;;;;;;;9.00;6.10;;;;;;;2.77;83.63;100771.09;4930450;29;20032;-86
2023/01/27 12:10:33;;;;;;;7.53;5.60;;;;;;;2.90;83.37;100792.19;4930051;29;20039;-93
2023/01/27 12:13:01;;;;;;;7.90;5.47;;;;;;;2.88;83.88;100776.03;4947261;29;20039;-91